createdAt,value
2023-03-17T00:01:39.094Z,63.10
2023-03-17T00:04:13.316Z,63.40
2023-03-17T00:06:41.367Z,63.10
2023-03-17T00:09:14.686Z,63.70
2023-03-17T00:11:42.626Z,63.60
2023-03-17T00:14:09.942Z,63.90
2023-03-17T00:16:39.807Z,64.10
2023-03-17T00:19:14.661Z,63.50
2023-03-17T00:21:42.121Z,63.40
2023-03-17T00:24:14.718Z,63.80
2023-03-17T00:26:43.600Z,63.90
2023-03-17T00:29:10.691Z,63.80
2023-03-17T00:31:39.003Z,63.90
2023-03-17T00:34:11.527Z,63.80
2023-03-17T00:36:38.659Z,63.80
2023-03-17T00:41:39.641Z,64.20
2023-03-17T00:44:06.882Z,64.10
2023-03-17T00:46:38.341Z,64.10
2023-03-17T00:51:45.085Z,64.50
2023-03-17T00:54:13.774Z,63.90
2023-03-17T00:56:41.668Z,64.40
2023-03-17T00:59:20.585Z,64.80
2023-03-17T01:01:48.083Z,64.60
2023-03-17T01:04:18.088Z,64.70
2023-03-17T01:06:48.329Z,64.90
2023-03-17T01:09:16.673Z,64.70
2023-03-17T01:11:44.475Z,64.70
2023-03-17T01:14:17.590Z,64.80
2023-03-17T01:16:44.839Z,64.70
2023-03-17T01:19:13.267Z,65.00
2023-03-17T01:21:42.618Z,64.80
2023-03-17T01:24:10.464Z,65.10
2023-03-17T01:26:37.741Z,65.30
2023-03-17T01:29:04.937Z,64.70
2023-03-17T01:38:57.363Z,65.00
2023-03-17T01:41:24.964Z,65.20
2023-03-17T01:43:51.962Z,65.40
2023-03-17T01:46:25.629Z,65.20
2023-03-17T01:48:59.673Z,65.40
2023-03-17T01:51:32.327Z,65.30
2023-03-17T01:54:06.640Z,65.30
2023-03-17T01:56:35.511Z,65.50
2023-03-17T01:59:07.435Z,65.50
2023-03-17T02:01:37.922Z,65.30
2023-03-17T02:04:06.578Z,65.30
2023-03-17T02:06:56.871Z,65.60
2023-03-17T02:09:27.589Z,65.60
2023-03-17T02:12:00.385Z,65.60
2023-03-17T02:14:28.212Z,65.70
2023-03-17T02:16:56.333Z,65.40
2023-03-17T02:19:24.509Z,65.30
2023-03-17T02:21:53.925Z,65.80
2023-03-17T02:24:28.056Z,66.10
2023-03-17T02:26:59.586Z,65.80
2023-03-17T02:29:27.769Z,66.00
2023-03-17T02:31:55.442Z,65.90
2023-03-17T02:34:22.382Z,65.60
2023-03-17T02:36:49.622Z,65.80
2023-03-17T02:39:18.452Z,66.10
2023-03-17T02:41:45.457Z,65.90
2023-03-17T02:45:25.684Z,66.20
2023-03-17T02:51:35.585Z,66.00
2023-03-17T03:03:21.905Z,66.70
2023-03-17T03:10:53.419Z,66.20
2023-03-17T03:17:17.978Z,66.50
2023-03-17T03:23:55.948Z,66.40
2023-03-17T03:26:22.996Z,66.60
2023-03-17T03:28:50.122Z,66.30
2023-03-17T03:31:17.471Z,66.30
2023-03-17T03:33:46.764Z,66.60
2023-03-17T03:36:13.768Z,66.50
2023-03-17T03:38:41.677Z,66.40
2023-03-17T03:49:56.044Z,66.80
2023-03-17T04:08:07.084Z,66.70
2023-03-17T04:10:34.434Z,66.90
2023-03-17T04:13:01.854Z,66.60
2023-03-17T04:15:29.036Z,66.50
2023-03-17T04:18:06.402Z,66.60
2023-03-17T04:20:33.476Z,66.90
2023-03-17T04:23:01.085Z,66.50
2023-03-17T04:25:29.620Z,66.80
2023-03-17T04:27:56.536Z,66.60
2023-03-17T04:30:25.707Z,66.70
2023-03-17T04:32:52.603Z,66.60
2023-03-17T04:35:24.028Z,66.90
2023-03-17T04:37:51.169Z,66.90
2023-03-17T04:40:19.385Z,66.90
2023-03-17T04:42:47.638Z,66.60
2023-03-17T04:45:15.535Z,66.90
2023-03-17T04:47:42.840Z,66.90
2023-03-17T04:50:11.362Z,66.70
2023-03-17T04:52:41.540Z,67.00
2023-03-17T04:55:09.453Z,66.80
2023-03-17T04:57:37.157Z,67.10
2023-03-17T05:00:22.089Z,66.80
2023-03-17T05:02:49.539Z,66.90
2023-03-17T05:05:16.514Z,67.10
2023-03-17T05:07:44.832Z,66.90
2023-03-17T05:10:13.008Z,66.90
2023-03-17T05:12:39.798Z,67.00
2023-03-17T05:15:09.935Z,66.90
2023-03-17T05:17:36.890Z,66.90
2023-03-17T05:20:04.346Z,66.60
2023-03-17T05:22:31.250Z,66.80
2023-03-17T05:24:58.136Z,66.80
2023-03-17T05:27:25.227Z,66.90
2023-03-17T05:29:52.539Z,66.90
2023-03-17T05:32:21.011Z,66.80
2023-03-17T05:34:48.052Z,66.90
2023-03-17T05:37:16.160Z,66.90
2023-03-17T05:39:43.713Z,66.80
2023-03-17T05:42:11.334Z,66.90
2023-03-17T05:44:38.218Z,66.80
2023-03-17T05:47:05.523Z,66.80
2023-03-17T05:49:33.736Z,66.90
2023-03-17T05:52:00.589Z,66.90
2023-03-17T05:54:27.764Z,66.60
2023-03-17T05:56:54.728Z,67.00
2023-03-17T05:59:22.177Z,67.10
2023-03-17T06:01:49.038Z,66.90
2023-03-17T06:04:17.901Z,67.10
2023-03-17T06:06:46.490Z,67.10
2023-03-17T06:09:13.674Z,67.20
2023-03-17T06:11:41.665Z,67.10
2023-03-17T06:14:11.366Z,67.10
2023-03-17T06:16:38.328Z,67.10
2023-03-17T06:19:06.005Z,67.00
2023-03-17T06:21:33.079Z,67.10
2023-03-17T06:24:01.968Z,67.10
2023-03-17T06:26:29.294Z,67.20
2023-03-17T06:28:56.488Z,66.90
2023-03-17T06:31:24.023Z,67.10
2023-03-17T06:33:50.998Z,66.80
2023-03-17T06:36:18.011Z,67.20
2023-03-17T06:38:46.063Z,67.00
2023-03-17T06:41:15.009Z,67.10
2023-03-17T06:43:42.196Z,67.10
2023-03-17T06:46:09.175Z,67.00
2023-03-17T06:48:36.295Z,67.00
2023-03-17T06:51:03.389Z,67.30
2023-03-17T06:53:30.605Z,67.00
2023-03-17T06:55:58.098Z,67.00
2023-03-17T06:58:28.820Z,66.90
2023-03-17T07:00:56.557Z,67.10
2023-03-17T07:03:24.205Z,66.90
2023-03-17T07:05:51.647Z,66.90
2023-03-17T07:08:19.482Z,66.70
2023-03-17T07:10:46.349Z,66.60
2023-03-17T07:13:13.731Z,66.70
2023-03-17T07:15:42.888Z,66.40
2023-03-17T07:18:09.714Z,66.60
2023-03-17T07:20:36.834Z,66.60
2023-03-17T07:23:03.730Z,66.50
2023-03-17T07:25:31.233Z,66.40
2023-03-17T07:27:59.346Z,66.40
2023-03-17T07:30:26.765Z,66.30
2023-03-17T07:32:55.225Z,66.30
2023-03-17T07:35:22.260Z,66.20
2023-03-17T07:37:49.740Z,65.90
2023-03-17T07:40:18.626Z,65.90
2023-03-17T07:42:45.793Z,65.80
2023-03-17T07:45:12.937Z,65.90
2023-03-17T07:47:40.472Z,65.80
2023-03-17T07:50:10.755Z,65.90
2023-03-17T07:52:37.968Z,65.70
2023-03-17T07:55:08.427Z,65.60
2023-03-17T07:57:35.851Z,65.60
2023-03-17T08:00:04.188Z,65.50
2023-03-17T08:02:31.850Z,65.20
2023-03-17T08:04:59.043Z,65.20
2023-03-17T08:07:27.470Z,64.70
2023-03-17T08:10:05.045Z,64.20
2023-03-17T08:12:35.071Z,64.20
2023-03-17T08:15:01.980Z,64.10
2023-03-17T08:17:28.877Z,63.80
2023-03-17T08:19:56.576Z,63.30
2023-03-17T08:22:24.783Z,62.20
2023-03-17T08:24:54.881Z,62.40
2023-03-17T08:27:22.253Z,62.20
2023-03-17T08:29:51.158Z,62.10
2023-03-17T08:32:18.483Z,61.70
2023-03-17T08:34:46.302Z,61.20
2023-03-17T08:37:13.365Z,61.20
2023-03-17T08:39:40.543Z,61.20
2023-03-17T08:42:08.956Z,60.70
2023-03-17T08:44:36.229Z,60.20
2023-03-17T08:47:06.073Z,60.30
2023-03-17T08:49:34.989Z,60.40
2023-03-17T08:54:45.337Z,59.90
2023-03-17T08:57:26.452Z,60.10
2023-03-17T08:59:53.700Z,60.20
2023-03-17T09:02:21.356Z,60.00
2023-03-17T09:04:48.287Z,59.70
2023-03-17T09:07:15.394Z,59.30
2023-03-17T09:09:42.479Z,59.50
2023-03-17T09:12:11.075Z,59.00
2023-03-17T09:14:44.105Z,59.20
2023-03-17T09:17:13.874Z,59.40
2023-03-17T09:19:41.570Z,59.10
2023-03-17T09:22:13.593Z,59.20
2023-03-17T09:24:40.663Z,57.70
2023-03-17T09:27:08.050Z,58.80
2023-03-17T09:29:34.966Z,58.50
2023-03-17T09:32:08.949Z,58.70
2023-03-17T09:34:39.237Z,58.60
2023-03-17T09:37:06.829Z,57.70
2023-03-17T09:39:34.919Z,58.20
2023-03-17T09:42:16.670Z,57.30
2023-03-17T09:45:01.697Z,57.40
2023-03-17T09:48:17.807Z,56.10
2023-03-17T09:50:48.900Z,56.90
2023-03-17T09:53:19.595Z,57.10
2023-03-17T09:55:50.216Z,56.20
2023-03-17T09:58:21.440Z,56.60
2023-03-17T10:00:49.009Z,55.90
2023-03-17T10:03:18.433Z,55.30
2023-03-17T10:06:02.273Z,55.40
2023-03-17T10:08:33.955Z,55.80
2023-03-17T10:11:11.102Z,56.50
2023-03-17T10:13:56.012Z,57.10
2023-03-17T10:16:39.220Z,57.30
2023-03-17T10:19:19.466Z,57.30
2023-03-17T10:22:04.736Z,57.30
2023-03-17T10:24:33.312Z,56.60
2023-03-17T10:27:08.575Z,56.50
2023-03-17T10:29:36.092Z,56.20
2023-03-17T10:32:04.187Z,56.70
2023-03-17T10:34:36.668Z,56.40
2023-03-17T10:37:07.345Z,57.10
2023-03-17T10:39:44.643Z,56.80
2023-03-17T10:42:19.628Z,56.20
2023-03-17T10:44:52.244Z,56.10
2023-03-17T10:47:24.648Z,56.20
2023-03-17T10:49:54.985Z,56.10
2023-03-17T10:52:27.437Z,56.40
2023-03-17T10:54:55.241Z,56.70
2023-03-17T10:57:22.955Z,56.50
2023-03-17T10:59:54.545Z,56.60
2023-03-17T11:02:26.865Z,56.40
2023-03-17T11:05:00.711Z,56.30
2023-03-17T11:07:33.634Z,56.30
2023-03-17T11:10:03.099Z,56.30
2023-03-17T11:12:36.880Z,56.40
2023-03-17T11:15:06.487Z,56.90
2023-03-17T11:17:45.511Z,56.70
2023-03-17T11:20:46.072Z,56.90
2023-03-17T11:23:23.638Z,57.10
2023-03-17T11:25:58.677Z,57.10
2023-03-17T11:28:33.236Z,57.00
2023-03-17T11:31:11.406Z,57.00
2023-03-17T11:33:47.292Z,57.00
2023-03-17T11:36:30.434Z,56.60
2023-03-17T11:39:00.719Z,55.80
2023-03-17T11:41:46.199Z,55.70
2023-03-17T11:44:42.285Z,54.60
2023-03-17T11:47:18.238Z,54.40
2023-03-17T11:49:53.936Z,55.50
2023-03-17T11:52:28.538Z,55.80
2023-03-17T11:55:02.455Z,55.20
2023-03-17T11:57:34.144Z,55.60
2023-03-17T12:00:04.848Z,56.20
2023-03-17T12:02:39.409Z,55.60
2023-03-17T12:05:09.910Z,55.80
2023-03-17T12:07:44.826Z,56.30
2023-03-17T12:10:21.824Z,55.50
2023-03-17T12:12:53.492Z,55.40
2023-03-17T12:15:29.285Z,55.30
2023-03-17T12:18:04.240Z,54.60
2023-03-17T12:20:37.710Z,55.00
2023-03-17T12:23:17.692Z,54.80
2023-03-17T12:25:51.208Z,55.00
2023-03-17T12:28:27.131Z,55.60
2023-03-17T12:31:01.245Z,55.40
2023-03-17T12:33:36.586Z,55.40
2023-03-17T12:36:05.101Z,55.90
2023-03-17T12:38:38.051Z,55.40
2023-03-17T12:41:24.703Z,55.20
2023-03-17T12:44:02.933Z,55.30
2023-03-17T12:47:01.871Z,54.80
2023-03-17T12:50:05.795Z,55.60
2023-03-17T12:53:09.248Z,56.10
2023-03-17T12:55:38.120Z,56.40
2023-03-17T12:58:15.556Z,56.40
2023-03-17T13:00:50.650Z,56.50
2023-03-17T13:03:23.776Z,56.30
2023-03-17T13:05:55.314Z,56.20
2023-03-17T13:08:25.748Z,56.40
2023-03-17T13:11:15.332Z,56.60
2023-03-17T13:13:54.935Z,56.80
2023-03-17T13:16:32.020Z,56.80
2023-03-17T13:19:20.130Z,56.90
2023-03-17T13:21:52.550Z,57.00
2023-03-17T13:24:36.512Z,57.30
2023-03-17T13:27:10.148Z,57.30
2023-03-17T13:29:47.467Z,57.20
2023-03-17T13:32:39.061Z,57.20
2023-03-17T13:35:18.753Z,56.80
2023-03-17T13:38:14.823Z,56.80
2023-03-17T13:40:53.234Z,57.00
2023-03-17T13:43:41.828Z,57.30
2023-03-17T13:46:22.198Z,57.50
2023-03-17T13:48:49.475Z,57.60
2023-03-17T13:51:24.926Z,57.60
2023-03-17T13:53:55.350Z,57.50
2023-03-17T13:56:25.573Z,57.40
2023-03-17T13:59:05.406Z,57.20
2023-03-17T14:01:39.160Z,57.10
2023-03-17T14:04:12.511Z,57.10
2023-03-17T14:06:40.455Z,57.40
2023-03-17T14:09:16.504Z,57.70
2023-03-17T14:11:47.581Z,57.90
2023-03-17T14:14:32.564Z,57.60
2023-03-17T14:17:07.101Z,57.20
2023-03-17T14:19:34.721Z,57.00
2023-03-17T14:22:20.361Z,57.20
2023-03-17T14:24:52.021Z,57.10
2023-03-17T14:27:20.251Z,57.00
2023-03-17T14:29:48.727Z,57.20
2023-03-17T14:32:20.320Z,57.50
2023-03-17T14:34:57.349Z,57.40
2023-03-17T14:37:28.544Z,57.40
2023-03-17T14:40:04.280Z,57.30
2023-03-17T14:42:32.103Z,57.30
2023-03-17T14:47:56.021Z,56.60
2023-03-17T14:50:33.583Z,56.80
2023-03-17T14:53:01.718Z,57.00
2023-03-17T14:55:36.543Z,56.60
2023-03-17T14:58:09.058Z,56.30
2023-03-17T15:00:46.006Z,56.30
2023-03-17T15:03:23.194Z,56.30
2023-03-17T15:05:50.832Z,56.20
2023-03-17T15:08:44.051Z,56.50
2023-03-17T15:11:24.162Z,56.40
2023-03-17T15:13:56.022Z,56.70
2023-03-17T15:16:31.559Z,56.70
2023-03-17T15:19:05.995Z,56.80
2023-03-17T15:21:35.647Z,56.60
2023-03-17T15:24:32.883Z,56.50
2023-03-17T15:27:02.726Z,56.90
2023-03-17T15:29:30.046Z,56.70
2023-03-17T15:32:07.239Z,56.90
2023-03-17T15:34:34.172Z,56.80
2023-03-17T15:37:04.360Z,57.00
2023-03-17T15:39:31.706Z,57.00
2023-03-17T15:42:00.746Z,57.10
2023-03-17T15:44:27.943Z,57.10
2023-03-17T15:46:54.762Z,57.30
2023-03-17T15:49:26.840Z,57.40
2023-03-17T15:51:54.179Z,57.50
2023-03-17T15:54:21.839Z,57.50
2023-03-17T15:56:58.098Z,57.40
2023-03-17T15:59:25.155Z,57.50
2023-03-17T16:02:30.863Z,57.60
2023-03-17T16:05:01.350Z,57.50
2023-03-17T16:07:30.774Z,57.50
2023-03-17T16:09:58.423Z,57.60
2023-03-17T16:12:25.538Z,57.70
2023-03-17T16:14:58.831Z,57.70
2023-03-17T16:17:29.506Z,57.80
2023-03-17T16:20:06.272Z,57.90
2023-03-17T16:26:25.633Z,58.00
2023-03-17T16:28:55.470Z,58.10
2023-03-17T16:31:25.464Z,58.10
2023-03-17T16:33:53.728Z,58.30
2023-03-17T16:36:22.556Z,58.30
2023-03-17T16:38:54.529Z,58.30
2023-03-17T16:41:23.803Z,58.40
2023-03-17T16:43:58.449Z,58.40
2023-03-17T16:46:31.720Z,58.40
2023-03-17T16:49:01.843Z,58.50
2023-03-17T16:51:31.248Z,58.60
2023-03-17T16:53:58.116Z,58.60
2023-03-17T16:56:27.550Z,58.60
2023-03-17T16:58:55.882Z,58.60
2023-03-17T17:01:26.050Z,58.80
2023-03-17T17:03:53.645Z,58.80
2023-03-17T17:06:22.781Z,58.90
2023-03-17T17:08:51.191Z,58.90
2023-03-17T17:11:20.350Z,58.90
2023-03-17T17:13:55.801Z,59.00
2023-03-17T17:16:26.651Z,59.10
2023-03-17T17:18:53.789Z,59.10
2023-03-17T17:21:21.354Z,59.30
2023-03-17T17:23:48.644Z,59.40
2023-03-17T17:26:15.764Z,59.50
2023-03-17T17:28:42.904Z,59.50
2023-03-17T17:31:11.679Z,59.60
2023-03-17T17:33:47.770Z,59.60
2023-03-17T17:36:16.980Z,59.60
2023-03-17T17:38:44.905Z,59.70
2023-03-17T17:41:13.363Z,59.80
2023-03-17T17:43:40.406Z,59.80
2023-03-17T17:46:17.925Z,59.90
2023-03-17T17:48:45.286Z,60.10
2023-03-17T17:51:12.250Z,60.10
2023-03-17T17:53:39.428Z,60.10
2023-03-17T17:56:07.154Z,60.30
2023-03-17T17:58:34.069Z,60.30
2023-03-17T18:01:01.023Z,60.30
2023-03-17T18:03:31.974Z,60.40
2023-03-17T18:05:59.687Z,60.50
2023-03-17T18:08:26.767Z,60.50
2023-03-17T18:10:55.654Z,60.50
2023-03-17T18:13:24.617Z,60.60
2023-03-17T18:15:52.350Z,60.70
2023-03-17T18:18:19.118Z,60.80
2023-03-17T18:20:49.766Z,60.70
2023-03-17T18:23:20.193Z,60.70
2023-03-17T18:25:47.284Z,60.80
2023-03-17T18:28:14.198Z,60.90
2023-03-17T18:30:43.226Z,61.00
2023-03-17T18:33:16.401Z,61.00
2023-03-17T18:35:46.050Z,61.00
2023-03-17T18:38:14.376Z,61.10
2023-03-17T18:40:41.880Z,61.20
2023-03-17T18:43:08.844Z,61.20
2023-03-17T18:45:36.014Z,61.40
2023-03-17T18:48:03.055Z,61.40
2023-03-17T18:50:30.325Z,61.50
2023-03-17T18:52:57.516Z,61.50
2023-03-17T18:55:25.888Z,61.60
2023-03-17T18:57:54.549Z,61.70
2023-03-17T19:00:22.094Z,61.80
2023-03-17T19:02:49.133Z,61.80
2023-03-17T19:05:16.204Z,61.90
2023-03-17T19:07:43.387Z,62.00
2023-03-17T19:10:12.449Z,62.10
2023-03-17T19:12:41.354Z,62.10
2023-03-17T19:15:10.703Z,62.20
2023-03-17T19:17:37.978Z,62.20
2023-03-17T19:20:06.123Z,62.20
2023-03-17T19:22:33.972Z,62.20
2023-03-17T19:25:01.417Z,62.30
2023-03-17T19:27:28.484Z,62.30
2023-03-17T19:29:56.872Z,62.30
2023-03-17T19:32:23.824Z,62.30
2023-03-17T19:34:50.897Z,62.50
2023-03-17T19:37:17.841Z,62.50
2023-03-17T19:39:45.033Z,62.60
2023-03-17T19:42:12.900Z,62.50
2023-03-17T19:44:43.574Z,62.70
2023-03-17T19:47:11.945Z,62.60
2023-03-17T19:49:39.115Z,62.70
2023-03-17T19:52:07.585Z,62.70
2023-03-17T19:54:34.890Z,63.00
2023-03-17T19:57:02.309Z,62.60
2023-03-17T19:59:29.177Z,62.50
2023-03-17T20:01:56.226Z,62.70
2023-03-17T20:04:24.610Z,62.60
2023-03-17T20:06:55.523Z,62.60
2023-03-17T20:09:23.122Z,62.50
2023-03-17T20:11:51.348Z,62.70
2023-03-17T20:14:19.833Z,62.60
2023-03-17T20:16:47.763Z,62.70
2023-03-17T20:19:14.823Z,62.70
2023-03-17T20:21:43.679Z,62.60
2023-03-17T20:24:12.824Z,62.80
2023-03-17T20:26:43.189Z,62.80
2023-03-17T20:29:14.214Z,62.90
2023-03-17T20:31:42.131Z,62.50
2023-03-17T20:34:10.548Z,63.00
2023-03-17T20:36:42.114Z,63.20
2023-03-17T20:39:14.772Z,63.00
2023-03-17T20:41:42.603Z,63.10
2023-03-17T20:44:09.751Z,63.70
2023-03-17T20:46:36.846Z,63.60
2023-03-17T20:49:05.605Z,64.00
2023-03-17T20:51:34.001Z,64.10
2023-03-17T20:54:01.463Z,63.80
2023-03-17T20:56:34.368Z,64.10
2023-03-17T20:59:04.932Z,64.50
2023-03-17T21:01:33.282Z,64.20
2023-03-17T21:04:00.575Z,64.60
2023-03-17T21:06:30.349Z,64.60
2023-03-17T21:08:57.720Z,64.60
2023-03-17T21:11:26.557Z,64.10
2023-03-17T21:13:55.469Z,64.70
2023-03-17T21:16:24.799Z,65.00
2023-03-17T21:18:52.602Z,64.70
2023-03-17T21:21:20.489Z,64.80
2023-03-17T21:23:47.669Z,65.10
2023-03-17T21:26:15.303Z,65.30
2023-03-17T21:28:42.853Z,65.50
2023-03-17T21:31:12.412Z,65.40
2023-03-17T21:33:39.724Z,65.80
2023-03-17T21:36:10.334Z,65.40
2023-03-17T21:38:37.618Z,65.50
2023-03-17T21:41:21.306Z,65.80
2023-03-17T21:43:48.578Z,65.90
2023-03-17T21:46:17.149Z,65.90
2023-03-17T21:48:46.936Z,65.80
2023-03-17T21:51:16.829Z,66.00
2023-03-17T21:53:44.649Z,65.90
2023-03-17T21:56:14.714Z,65.90
2023-03-17T21:58:41.654Z,66.00
2023-03-17T22:01:09.179Z,66.10
2023-03-17T22:03:39.563Z,66.20
2023-03-17T22:06:07.698Z,66.00
2023-03-17T22:08:34.960Z,66.50
2023-03-17T22:11:06.228Z,66.50
2023-03-17T22:13:33.345Z,66.30
2023-03-17T22:16:00.293Z,66.30
2023-03-17T22:18:27.565Z,66.30
2023-03-17T22:20:56.534Z,66.80
2023-03-17T22:23:23.815Z,66.20
2023-03-17T22:25:51.025Z,66.90
2023-03-17T22:28:18.683Z,66.40
2023-03-17T22:30:46.071Z,67.00
2023-03-17T22:33:13.686Z,67.10
2023-03-17T22:35:40.826Z,66.90
2023-03-17T22:38:18.788Z,67.10
2023-03-17T22:40:46.342Z,67.50
2023-03-17T22:43:13.423Z,67.60
2023-03-17T22:45:42.425Z,67.60
2023-03-17T22:48:10.892Z,67.60
2023-03-17T22:50:37.978Z,67.70
2023-03-17T22:53:09.101Z,67.70
2023-03-17T22:55:36.452Z,67.70
2023-03-17T22:58:03.543Z,67.90
2023-03-17T23:00:32.397Z,67.90
2023-03-17T23:02:59.613Z,67.90
2023-03-17T23:05:26.689Z,67.90
2023-03-17T23:07:53.938Z,67.90
2023-03-17T23:10:25.852Z,68.00
2023-03-17T23:12:53.094Z,68.10
2023-03-17T23:15:20.910Z,68.10
2023-03-17T23:17:48.254Z,68.30
2023-03-17T23:20:24.361Z,68.40
2023-03-17T23:22:53.162Z,68.40
2023-03-17T23:25:21.515Z,68.50
2023-03-17T23:27:50.085Z,68.50
2023-03-17T23:30:17.911Z,68.50
2023-03-17T23:32:45.653Z,68.70
2023-03-17T23:35:13.724Z,68.80
2023-03-17T23:37:43.664Z,69.00
2023-03-17T23:40:15.623Z,69.10
2023-03-17T23:42:43.177Z,69.10
2023-03-17T23:45:12.225Z,69.00
2023-03-17T23:47:39.275Z,68.90
2023-03-17T23:50:07.697Z,69.70
2023-03-17T23:52:34.726Z,69.80
2023-03-17T23:55:02.216Z,69.40
2023-03-17T23:57:29.528Z,70.00
2023-03-17T23:59:57.232Z,70.00
